Time;durP1;ratioP1;P1;durP2;ratioP2;P2;SDS_P1;SDS_P2;PMS_P1;PMS_P2;Temp;Humidity;BMP_temperature;BMP_pressure;BME280_temperature;BME280_humidity;BME280_pressure;Samples;Min_cycle;Max_cycle;Signal;HPM_P1;HPM_P2
2022/12/31 00:00:29;;;;;;;0.85;0.85;;;;;;;12.41;100.00;98099.53;4172401;28;20227;-49
2022/12/31 00:02:31;;;;;;;0.70;0.70;;;;;;;12.47;100.00;98098.47;4185102;28;20747;-49
2022/12/31 00:04:33;;;;;;;0.70;0.70;;;;;;;12.44;100.00;98100.94;4173347;28;20219;-48
2022/12/31 00:06:35;;;;;;;0.90;0.90;;;;;;;12.44;100.00;98104.47;4172485;28;20204;-48
2022/12/31 00:08:37;;;;;;;1.00;1.00;;;;;;;12.51;100.00;98105.03;4169525;28;20294;-49
2022/12/31 00:10:40;;;;;;;2.85;1.02;;;;;;;12.49;100.00;98106.41;4168591;28;20247;-48
2022/12/31 00:12:42;;;;;;;1.35;0.93;;;;;;;12.56;100.00;98109.72;4170095;28;20291;-48
2022/12/31 00:14:44;;;;;;;0.77;0.77;;;;;;;12.56;100.00;98113.28;4168357;28;20222;-49
2022/12/31 00:16:46;;;;;;;0.88;0.77;;;;;;;12.60;100.00;98103.41;4171297;28;20298;-48
2022/12/31 00:18:51;;;;;;;1.10;1.00;;;;;;;12.63;100.00;98108.34;4171772;28;20226;-49
2022/12/31 00:20:53;;;;;;;0.70;0.68;;;;;;;12.67;100.00;98087.50;4169340;28;20236;-48
2022/12/31 00:22:54;;;;;;;1.10;1.00;;;;;;;12.71;100.00;98096.81;4171506;28;20533;-49
2022/12/31 00:24:56;;;;;;;0.88;0.88;;;;;;;12.76;100.00;98113.31;4181153;28;20200;-48
2022/12/31 00:26:58;;;;;;;0.82;0.82;;;;;;;12.70;100.00;98103.41;4166266;28;20635;-49
2022/12/31 00:29:00;;;;;;;1.70;1.20;;;;;;;12.77;100.00;98119.63;4168786;28;20232;-49
2022/12/31 00:31:12;;;;;;;0.88;0.88;;;;;;;12.78;100.00;98111.09;4171765;28;20303;-49
2022/12/31 00:33:14;;;;;;;0.70;0.70;;;;;;;12.84;100.00;98125.69;4155467;28;20251;-49
2022/12/31 00:35:16;;;;;;;0.80;0.80;;;;;;;12.82;100.00;98134.19;4173853;28;20235;-49
2022/12/31 00:37:18;;;;;;;0.80;0.80;;;;;;;12.95;100.00;98128.19;4169752;28;20205;-48
2022/12/31 00:39:20;;;;;;;2.08;0.98;;;;;;;12.86;100.00;98129.81;4172071;28;20228;-49
2022/12/31 00:41:22;;;;;;;1.17;0.90;;;;;;;12.87;100.00;98139.69;4168861;28;20231;-49
2022/12/31 00:43:24;;;;;;;1.10;1.10;;;;;;;12.93;100.00;98129.50;4154221;28;20213;-50
2022/12/31 00:45:25;;;;;;;0.82;0.82;;;;;;;12.96;100.00;98129.81;4169720;28;20213;-49
2022/12/31 00:47:27;;;;;;;0.80;0.80;;;;;;;12.95;100.00;98138.31;4168570;28;20231;-50
2022/12/31 00:49:29;;;;;;;0.90;0.90;;;;;;;12.96;100.00;98146.28;4168223;28;20454;-49
2022/12/31 00:51:31;;;;;;;1.48;0.85;;;;;;;12.97;100.00;98145.19;4165727;28;20251;-49
2022/12/31 00:53:33;;;;;;;0.80;0.80;;;;;;;12.97;100.00;98158.13;4165765;28;20205;-49
2022/12/31 00:55:34;;;;;;;1.40;0.95;;;;;;;12.97;100.00;98161.66;4169606;28;20207;-49
2022/12/31 00:57:36;;;;;;;0.98;0.98;;;;;;;13.04;100.00;98158.66;4166937;28;20243;-49
2022/12/31 00:59:38;;;;;;;0.98;0.73;;;;;;;13.03;100.00;98163.31;4172787;28;21141;-49
2022/12/31 01:01:40;;;;;;;0.65;0.65;;;;;;;13.05;100.00;98160.31;4170350;28;20239;-49
2022/12/31 01:03:43;;;;;;;1.00;0.95;;;;;;;13.13;100.00;98160.59;4172112;28;20229;-48
2022/12/31 01:05:44;;;;;;;1.20;1.20;;;;;;;13.14;100.00;98159.50;4169493;28;20208;-49
2022/12/31 01:07:46;;;;;;;4.55;0.88;;;;;;;13.18;100.00;98193.53;4170686;28;20319;-49
2022/12/31 01:09:48;;;;;;;0.80;0.80;;;;;;;13.28;100.00;98182.56;4169592;28;20851;-50
2022/12/31 01:11:50;;;;;;;1.48;0.95;;;;;;;13.22;100.00;98183.66;4166721;28;20797;-49
2022/12/31 01:13:55;;;;;;;2.85;1.00;;;;;;;13.30;100.00;98185.84;4170976;28;20324;-49
2022/12/31 01:15:56;;;;;;;1.30;1.27;;;;;;;13.22;100.00;98200.16;4172599;28;20666;-49
2022/12/31 01:17:58;;;;;;;1.13;1.02;;;;;;;13.24;100.00;98199.88;4166684;28;20235;-48
2022/12/31 01:20:00;;;;;;;1.17;1.05;;;;;;;13.23;100.00;98206.47;4168101;28;20263;-50
2022/12/31 01:22:02;;;;;;;1.38;0.68;;;;;;;13.20;100.00;98207.84;4168485;28;20259;-50
2022/12/31 01:24:04;;;;;;;1.20;1.10;;;;;;;13.23;100.00;98207.28;4169657;28;20303;-49
2022/12/31 01:26:07;;;;;;;0.90;0.90;;;;;;;13.19;100.00;98217.19;4167635;28;20254;-49
2022/12/31 01:28:09;;;;;;;1.77;1.13;;;;;;;13.20;100.00;98221.59;4169191;28;20260;-48
2022/12/31 01:30:11;;;;;;;0.95;0.95;;;;;;;13.18;100.00;98210.03;4168144;28;20307;-50
2022/12/31 01:32:13;;;;;;;1.23;0.98;;;;;;;13.19;100.00;98211.69;4153698;28;20208;-49
2022/12/31 01:34:14;;;;;;;2.38;0.95;;;;;;;13.16;100.00;98223.22;4171211;28;20236;-49
2022/12/31 01:36:22;;;;;;;1.00;1.00;;;;;;;13.21;100.00;98225.16;4169308;28;20748;-50
2022/12/31 01:38:27;;;;;;;1.35;1.10;;;;;;;13.24;100.00;98219.91;4169308;28;20215;-49
2022/12/31 01:40:29;;;;;;;1.05;1.00;;;;;;;13.22;100.00;98230.38;4156185;28;20232;-48
2022/12/31 01:42:30;;;;;;;1.85;0.82;;;;;;;13.23;100.00;98240.25;4171327;28;20287;-49
2022/12/31 01:44:32;;;;;;;0.88;0.88;;;;;;;13.25;100.00;98231.75;4168769;28;20244;-49
2022/12/31 01:46:48;;;;;;;1.00;0.90;;;;;;;13.18;100.00;98232.00;4170734;28;20290;-48
2022/12/31 01:48:53;;;;;;;0.98;0.98;;;;;;;13.20;100.00;98240.81;4167588;28;20259;-48
2022/12/31 01:50:55;;;;;;;1.98;1.15;;;;;;;13.20;100.00;98243.56;4170153;28;20220;-49
2022/12/31 01:52:59;;;;;;;1.70;0.98;;;;;;;13.20;100.00;98243.56;4168802;28;20343;-49
2022/12/31 01:55:22;;;;;;;3.50;1.85;;;;;;;13.26;100.00;98258.97;4165349;28;20678;-48
2022/12/31 01:57:25;;;;;;;2.05;1.23;;;;;;;13.31;100.00;98244.41;4168162;28;20209;-49
2022/12/31 01:59:28;;;;;;;1.17;1.08;;;;;;;13.30;100.00;98254.56;4150681;28;20617;-48
2022/12/31 02:01:31;;;;;;;1.98;1.30;;;;;;;13.33;100.00;98244.94;4165416;28;20212;-49
2022/12/31 02:03:33;;;;;;;1.25;1.08;;;;;;;13.30;100.00;98257.31;4165030;28;20771;-49
2022/12/31 02:05:40;;;;;;;1.27;1.17;;;;;;;13.30;100.00;98237.25;4167820;28;20213;-49
2022/12/31 02:07:42;;;;;;;2.22;1.13;;;;;;;13.30;100.00;98234.50;4170947;28;20200;-49
2022/12/31 02:09:44;;;;;;;3.03;1.50;;;;;;;13.27;100.00;98237.78;4173713;28;20293;-50
2022/12/31 02:11:46;;;;;;;1.02;1.00;;;;;;;13.25;100.00;98243.56;4186736;28;20214;-48
2022/12/31 02:13:49;;;;;;;1.05;0.95;;;;;;;13.26;100.00;98245.22;4169470;28;20231;-50
2022/12/31 02:16:08;;;;;;;0.80;0.80;;;;;;;13.32;100.00;98255.13;4170615;28;20298;-49
2022/12/31 02:18:24;;;;;;;0.93;0.93;;;;;;;13.36;100.00;98250.72;4189290;28;20670;-50
2022/12/31 02:20:34;;;;;;;0.85;0.80;;;;;;;13.29;100.00;98266.66;4173235;28;20655;-48
2022/12/31 02:22:48;;;;;;;0.95;0.93;;;;;;;13.16;100.00;98271.88;4171986;28;20246;-48
2022/12/31 02:25:12;;;;;;;1.35;1.25;;;;;;;13.01;100.00;98264.41;4175043;28;20294;-49
2022/12/31 02:27:47;;;;;;;0.77;0.75;;;;;;;12.90;100.00;98257.22;4186497;28;20690;-49
2022/12/31 02:30:10;;;;;;;1.23;0.90;;;;;;;12.85;100.00;98254.44;4172682;28;20333;-49
2022/12/31 02:32:31;;;;;;;1.65;0.93;;;;;;;12.80;100.00;98257.19;4172258;28;20680;-49
2022/12/31 02:34:36;;;;;;;1.13;1.08;;;;;;;12.83;100.00;98255.84;4175548;28;20203;-50
2022/12/31 02:36:41;;;;;;;1.00;0.90;;;;;;;12.88;100.00;98253.06;4188312;28;20208;-48
2022/12/31 02:38:45;;;;;;;1.75;1.02;;;;;;;12.94;100.00;98241.84;4170933;28;20320;-48
2022/12/31 02:40:47;;;;;;;1.65;1.38;;;;;;;12.94;100.00;98249.25;4186047;28;20211;-49
2022/12/31 02:42:49;;;;;;;1.13;1.02;;;;;;;12.92;100.00;98260.53;4173088;28;20240;-49
2022/12/31 02:44:56;;;;;;;1.08;0.98;;;;;;;12.99;100.00;98250.13;4169659;28;20284;-48
2022/12/31 02:47:08;;;;;;;0.90;0.90;;;;;;;13.04;100.00;98241.06;4159425;28;20678;-49
2022/12/31 02:49:15;;;;;;;1.20;1.10;;;;;;;13.03;100.00;98240.25;4170324;28;20285;-49
2022/12/31 02:51:35;;;;;;;0.98;0.98;;;;;;;13.03;100.00;98240.25;4185803;28;20288;-50
2022/12/31 02:53:55;;;;;;;1.75;1.20;;;;;;;13.08;100.00;98245.75;4184839;28;20206;-49
2022/12/31 02:56:04;;;;;;;1.10;1.10;;;;;;;13.08;100.00;98220.19;4186481;28;20593;-49
2022/12/31 03:03:13;;;;;;;0.93;0.90;;;;;;;13.25;100.00;98238.06;4171706;28;20247;-48
2022/12/31 03:05:17;;;;;;;1.25;1.15;;;;;;;13.32;100.00;98222.16;4171602;28;20248;-49
2022/12/31 03:07:25;;;;;;;1.33;1.23;;;;;;;13.30;100.00;98229.81;4168934;28;20236;-49
2022/12/31 03:09:27;;;;;;;1.10;1.00;;;;;;;13.34;100.00;98233.69;4170382;28;20326;-49
2022/12/31 03:13:52;;;;;;;1.60;1.00;;;;;;;13.39;100.00;98217.19;4169341;28;20295;-48
2022/12/31 03:15:54;;;;;;;0.90;0.90;;;;;;;13.40;100.00;98218.84;4172165;28;20208;-48
2022/12/31 03:17:59;;;;;;;0.88;0.85;;;;;;;13.40;100.00;98231.75;4169583;28;20231;-49
2022/12/31 03:22:27;;;;;;;2.58;1.35;;;;;;;13.50;100.00;98216.06;4171818;28;20568;-49
2022/12/31 03:26:49;;;;;;;0.98;0.90;;;;;;;13.58;100.00;98232.00;4168170;28;20215;-49
2022/12/31 03:28:51;;;;;;;2.83;1.13;;;;;;;13.50;100.00;98234.50;4186347;28;20637;-50
2022/12/31 03:30:55;;;;;;;1.27;1.17;;;;;;;13.49;100.00;98243.88;4170558;28;20282;-49
2022/12/31 03:32:57;;;;;;;1.33;1.20;;;;;;;13.61;100.00;98214.13;4169732;28;20267;-49
2022/12/31 03:34:59;;;;;;;3.33;1.25;;;;;;;13.61;100.00;98231.47;4170518;28;20332;-48
2022/12/31 03:37:01;;;;;;;1.02;0.90;;;;;;;13.67;100.00;98224.88;4172483;28;20213;-49
2022/12/31 03:39:03;;;;;;;1.00;0.90;;;;;;;13.64;100.00;98217.16;4172271;28;20581;-49
2022/12/31 03:41:05;;;;;;;1.13;1.00;;;;;;;13.81;100.00;98247.13;4171565;28;20212;-50
2022/12/31 03:43:07;;;;;;;0.95;0.95;;;;;;;13.77;100.00;98230.34;4172020;28;20258;-49
2022/12/31 03:45:10;;;;;;;0.60;0.60;;;;;;;13.75;100.00;98243.56;4172386;28;20291;-50
2022/12/31 03:47:12;;;;;;;1.83;0.90;;;;;;;13.83;100.00;98240.25;4186161;28;20215;-49
2022/12/31 03:49:13;;;;;;;2.50;1.10;;;;;;;13.80;100.00;98246.31;4186032;28;20267;-48
2022/12/31 03:51:15;;;;;;;0.88;0.80;;;;;;;13.80;100.00;98240.81;4169966;28;20239;-48
2022/12/31 03:53:17;;;;;;;1.05;0.95;;;;;;;13.85;100.00;98250.97;4168666;28;20259;-49
2022/12/31 03:55:19;;;;;;;1.65;0.85;;;;;;;13.92;100.00;98246.84;4169151;28;20201;-49
2022/12/31 03:57:22;;;;;;;1.58;0.90;;;;;;;13.90;100.00;98257.28;4170689;28;20242;-51
2022/12/31 03:59:24;;;;;;;1.08;0.98;;;;;;;13.81;100.00;98253.44;4171797;28;20223;-51
2022/12/31 04:01:26;;;;;;;1.38;0.75;;;;;;;13.90;100.00;98254.53;4170360;28;20231;-50
2022/12/31 04:03:28;;;;;;;0.80;0.80;;;;;;;13.88;100.00;98254.00;4169403;28;20726;-50
2022/12/31 04:05:30;;;;;;;0.75;0.75;;;;;;;13.89;100.00;98244.63;4173757;28;20679;-51
2022/12/31 04:07:32;;;;;;;0.75;0.75;;;;;;;13.84;100.00;98263.88;4179713;28;20706;-50
2022/12/31 04:09:33;;;;;;;0.70;0.70;;;;;;;13.85;100.00;98254.56;4172211;28;20988;-50
2022/12/31 04:11:38;;;;;;;0.80;0.63;;;;;;;13.87;100.00;98257.00;4169937;28;20577;-50
2022/12/31 04:13:40;;;;;;;1.48;0.93;;;;;;;13.88;100.00;98254.00;4171124;28;20711;-50
2022/12/31 04:15:42;;;;;;;0.73;0.70;;;;;;;13.78;100.00;98270.50;4170156;28;20240;-50
2022/12/31 04:17:43;;;;;;;0.90;0.90;;;;;;;13.84;100.00;98258.38;4171169;28;20232;-50
2022/12/31 04:19:45;;;;;;;0.93;0.90;;;;;;;13.86;100.00;98258.13;4172248;28;20270;-47
2022/12/31 04:21:47;;;;;;;0.80;0.80;;;;;;;13.84;100.00;98263.88;4171745;28;20210;-48
2022/12/31 04:23:49;;;;;;;1.30;1.00;;;;;;;13.83;100.00;98270.50;4172860;28;20216;-48
2022/12/31 04:25:52;;;;;;;0.70;0.70;;;;;;;13.83;100.00;98267.75;4168788;28;20216;-49
2022/12/31 04:27:54;;;;;;;1.00;1.00;;;;;;;13.92;100.00;98263.34;4170667;28;20670;-48
2022/12/31 04:29:56;;;;;;;0.95;0.85;;;;;;;13.95;100.00;98268.28;4151406;28;20395;-50
2022/12/31 04:31:58;;;;;;;0.70;0.70;;;;;;;13.91;100.00;98264.41;4168087;28;20204;-51
2022/12/31 04:33:59;;;;;;;1.48;1.08;;;;;;;13.92;100.00;98260.59;4171155;28;20295;-50
2022/12/31 04:36:03;;;;;;;1.15;1.10;;;;;;;13.94;100.00;98283.16;4170774;28;20239;-50
2022/12/31 04:38:05;;;;;;;1.35;1.10;;;;;;;14.06;100.00;98267.16;4173111;28;20232;-50
2022/12/31 04:40:10;;;;;;;1.52;0.82;;;;;;;14.11;100.00;98280.09;4171283;28;20243;-49
2022/12/31 04:42:12;;;;;;;0.73;0.73;;;;;;;14.10;100.00;98260.00;4168841;28;20208;-50
2022/12/31 04:44:14;;;;;;;1.75;1.25;;;;;;;14.04;100.00;98277.59;4171253;28;20633;-50
2022/12/31 04:46:18;;;;;;;0.75;0.75;;;;;;;14.03;100.00;98278.72;4183088;28;20239;-50
2022/12/31 04:48:19;;;;;;;1.00;0.90;;;;;;;14.06;100.00;98278.19;4166472;28;20216;-50
2022/12/31 04:50:21;;;;;;;0.65;0.65;;;;;;;14.08;100.00;98295.22;4154128;28;20228;-50
2022/12/31 04:52:23;;;;;;;0.63;0.60;;;;;;;14.12;100.00;98293.56;4168861;28;20644;-51
2022/12/31 04:54:25;;;;;;;0.60;0.60;;;;;;;14.13;100.00;98284.22;4168544;28;20259;-50
2022/12/31 04:56:27;;;;;;;0.70;0.70;;;;;;;14.16;100.00;98294.66;4169246;28;20218;-51
2022/12/31 04:58:29;;;;;;;0.70;0.70;;;;;;;14.14;100.00;98285.84;4167317;28;20208;-51
2022/12/31 05:00:30;;;;;;;0.65;0.65;;;;;;;14.19;100.00;98299.66;4172595;28;20267;-50
2022/12/31 05:02:32;;;;;;;0.68;0.68;;;;;;;14.26;100.00;98280.91;4155322;28;20247;-50
2022/12/31 05:04:34;;;;;;;0.65;0.65;;;;;;;14.23;100.00;98292.47;4170073;28;20211;-50
2022/12/31 05:06:36;;;;;;;0.65;0.60;;;;;;;14.21;100.00;98297.44;4181858;28;20338;-50
2022/12/31 05:08:38;;;;;;;0.60;0.50;;;;;;;14.17;100.00;98290.78;4169192;28;20295;-49
2022/12/31 05:10:45;;;;;;;0.57;0.57;;;;;;;14.12;100.00;98299.09;4170074;28;20200;-50
2022/12/31 05:12:46;;;;;;;0.63;0.63;;;;;;;14.14;100.00;98291.38;4184430;28;20226;-48
2022/12/31 05:14:48;;;;;;;0.73;0.73;;;;;;;14.14;100.00;98291.38;4185819;28;20238;-48
2022/12/31 05:16:50;;;;;;;3.40;0.90;;;;;;;14.22;100.00;98285.31;4167831;28;21935;-49
2022/12/31 05:18:51;;;;;;;0.60;0.60;;;;;;;14.19;100.00;98290.56;4171358;28;20685;-48
2022/12/31 05:20:53;;;;;;;0.63;0.60;;;;;;;14.18;100.00;98295.22;4182840;28;20310;-49
2022/12/31 05:22:55;;;;;;;0.70;0.70;;;;;;;14.17;100.00;98292.75;4168743;28;20392;-49
2022/12/31 05:24:57;;;;;;;0.50;0.50;;;;;;;14.20;100.00;98295.78;4168581;28;20208;-48
2022/12/31 05:26:59;;;;;;;2.40;0.70;;;;;;;14.19;100.00;98288.63;4171175;28;20637;-48
2022/12/31 05:29:01;;;;;;;0.70;0.70;;;;;;;14.19;100.00;98294.16;4168924;28;20256;-47
2022/12/31 05:31:02;;;;;;;0.60;0.60;;;;;;;14.24;100.00;98296.88;4166642;28;20664;-48
2022/12/31 05:33:04;;;;;;;0.75;0.75;;;;;;;14.23;100.00;98311.72;4165463;28;20290;-48
2022/12/31 05:35:06;;;;;;;0.65;0.65;;;;;;;14.21;100.00;98297.44;4150389;28;20212;-48
2022/12/31 05:37:08;;;;;;;1.85;1.00;;;;;;;14.29;100.00;98287.78;4169292;28;20696;-48
2022/12/31 05:39:10;;;;;;;0.70;0.60;;;;;;;14.25;100.00;98304.03;4169258;28;21138;-48
2022/12/31 05:41:12;;;;;;;0.73;0.73;;;;;;;14.23;100.00;98306.22;4174493;28;20207;-47
2022/12/31 05:43:14;;;;;;;0.60;0.60;;;;;;;14.19;100.00;98316.16;4161216;28;20259;-48
2022/12/31 05:45:17;;;;;;;1.75;0.80;;;;;;;14.20;100.00;98311.47;4188407;28;20677;-48
2022/12/31 05:47:19;;;;;;;1.83;0.93;;;;;;;14.18;100.00;98308.97;4174455;28;20235;-49
2022/12/31 05:49:20;;;;;;;0.60;0.60;;;;;;;14.23;100.00;98310.94;4173408;28;20680;-48
2022/12/31 05:51:22;;;;;;;0.70;0.70;;;;;;;14.20;100.00;98306.78;4173431;28;20235;-49
2022/12/31 05:53:24;;;;;;;0.82;0.70;;;;;;;14.13;100.00;98320.00;4173382;28;20300;-48
2022/12/31 05:55:25;;;;;;;0.70;0.70;;;;;;;14.19;100.00;98315.31;4172566;28;20208;-47
2022/12/31 05:57:27;;;;;;;1.67;0.80;;;;;;;14.15;100.00;98326.03;4172297;28;20210;-48
2022/12/31 05:59:29;;;;;;;2.28;0.70;;;;;;;14.13;100.00;98328.25;4171308;28;20693;-47
2022/12/31 06:01:31;;;;;;;0.60;0.60;;;;;;;14.14;100.00;98334.56;4171132;28;20203;-48
2022/12/31 06:03:33;;;;;;;0.60;0.60;;;;;;;14.13;100.00;98314.50;4176455;28;20210;-48
2022/12/31 06:05:40;;;;;;;1.17;0.90;;;;;;;14.10;100.00;98326.03;4170383;28;20212;-47
2022/12/31 06:07:42;;;;;;;1.45;0.95;;;;;;;14.11;100.00;98330.44;4173640;28;20236;-47
2022/12/31 06:09:44;;;;;;;0.70;0.70;;;;;;;14.06;100.00;98338.72;4171242;28;20263;-49
2022/12/31 06:11:45;;;;;;;0.88;0.88;;;;;;;14.05;100.00;98353.56;4158902;28;20653;-48
2022/12/31 06:13:47;;;;;;;0.90;0.90;;;;;;;14.09;100.00;98338.16;4184852;28;20238;-48
2022/12/31 06:15:49;;;;;;;0.75;0.60;;;;;;;14.12;100.00;98348.63;4171941;28;20303;-48
2022/12/31 06:17:51;;;;;;;1.58;1.25;;;;;;;14.09;100.00;98346.41;4172707;28;20258;-48
2022/12/31 06:19:52;;;;;;;0.80;0.80;;;;;;;14.11;100.00;98343.38;4155126;28;20895;-48
2022/12/31 06:21:54;;;;;;;0.93;0.70;;;;;;;14.07;100.00;98362.38;4170082;28;20240;-47
2022/12/31 06:23:57;;;;;;;1.00;0.80;;;;;;;14.14;100.00;98356.56;4157297;28;20231;-48
2022/12/31 06:26:03;;;;;;;2.97;0.85;;;;;;;14.04;100.00;98357.41;4174718;28;20222;-47
2022/12/31 06:28:05;;;;;;;0.73;0.73;;;;;;;14.04;100.00;98357.41;4171991;28;20232;-48
2022/12/31 06:30:07;;;;;;;0.75;0.75;;;;;;;14.03;100.00;98372.25;4168885;28;20228;-50
2022/12/31 06:32:09;;;;;;;1.58;0.80;;;;;;;14.01;100.00;98363.47;4173952;28;20247;-51
2022/12/31 06:34:11;;;;;;;2.38;1.33;;;;;;;13.95;100.00;98374.72;4158643;28;20209;-51
2022/12/31 06:36:14;;;;;;;2.63;1.35;;;;;;;13.93;100.00;98366.78;4169794;28;20319;-50
2022/12/31 06:38:16;;;;;;;1.25;1.15;;;;;;;13.97;100.00;98367.84;4170686;28;20243;-50
2022/12/31 06:40:18;;;;;;;0.77;0.77;;;;;;;14.00;100.00;98366.50;4173504;28;20290;-49
2022/12/31 06:42:19;;;;;;;2.00;1.35;;;;;;;13.97;100.00;98389.88;4169680;28;20324;-49
2022/12/31 06:44:21;;;;;;;1.23;1.08;;;;;;;13.94;100.00;98401.44;4171763;28;20204;-51
2022/12/31 06:46:23;;;;;;;1.30;1.05;;;;;;;13.90;100.00;98392.06;4174053;28;20220;-49
2022/12/31 06:48:25;;;;;;;0.98;0.98;;;;;;;13.87;100.00;98389.88;4170542;28;20208;-49
2022/12/31 06:50:27;;;;;;;1.25;1.15;;;;;;;13.85;100.00;98397.59;4173608;28;20224;-49
2022/12/31 06:52:28;;;;;;;1.10;1.00;;;;;;;13.83;100.00;98394.28;4171862;28;20216;-50
2022/12/31 06:54:30;;;;;;;1.00;1.00;;;;;;;13.82;100.00;98391.78;4186389;28;20234;-49
2022/12/31 06:56:32;;;;;;;3.25;1.10;;;;;;;13.78;100.00;98391.50;4171025;28;20239;-50
2022/12/31 06:58:36;;;;;;;2.15;1.63;;;;;;;13.75;100.00;98403.06;4174696;28;20205;-47
2022/12/31 07:00:40;;;;;;;0.95;0.90;;;;;;;13.73;100.00;98397.03;4171574;28;20291;-51
2022/12/31 07:02:56;;;;;;;1.27;0.85;;;;;;;13.72;100.00;98389.03;4172365;28;20215;-51
2022/12/31 07:05:27;;;;;;;1.17;1.08;;;;;;;13.66;100.00;98404.72;4173957;28;20212;-50
2022/12/31 07:07:41;;;;;;;1.05;1.05;;;;;;;13.61;100.00;98406.59;4170837;28;20247;-51
2022/12/31 07:10:09;;;;;;;3.22;1.50;;;;;;;13.65;100.00;98400.31;4171856;28;20258;-50
2022/12/31 07:12:25;;;;;;;3.45;1.40;;;;;;;13.62;100.00;98420.09;4170260;28;20204;-50
2022/12/31 07:14:29;;;;;;;1.17;1.10;;;;;;;13.61;100.00;98412.94;4173866;28;20660;-50
2022/12/31 07:17:05;;;;;;;0.90;0.88;;;;;;;13.57;100.00;98409.06;4170786;28;20673;-50
2022/12/31 07:19:32;;;;;;;2.58;1.30;;;;;;;13.61;100.00;98407.44;4160377;28;20283;-50
2022/12/31 07:21:38;;;;;;;0.95;0.95;;;;;;;13.60;100.00;98403.06;4166413;28;20196;-50
2022/12/31 07:23:41;;;;;;;1.40;0.90;;;;;;;13.55;100.00;98411.28;4169433;28;20571;-49
2022/12/31 07:25:53;;;;;;;5.65;1.10;;;;;;;13.56;100.00;98412.13;4169918;28;20248;-50
2022/12/31 07:28:07;;;;;;;7.88;1.10;;;;;;;13.55;100.00;98411.28;4168122;28;20244;-50
2022/12/31 07:30:44;;;;;;;0.80;0.80;;;;;;;13.49;100.00;98401.38;4166075;28;20228;-50
2022/12/31 07:32:52;;;;;;;1.27;1.00;;;;;;;13.42;100.00;98409.03;4166639;28;20211;-51
2022/12/31 07:35:25;;;;;;;1.42;0.98;;;;;;;13.47;100.00;98413.72;4169995;28;20796;-50
2022/12/31 07:38:05;;;;;;;1.60;1.00;;;;;;;13.47;100.00;98422.81;4169834;28;20222;-51
2022/12/31 07:40:16;;;;;;;1.30;1.20;;;;;;;13.46;100.00;98432.16;4145986;28;20670;-51
2022/12/31 07:42:25;;;;;;;1.35;1.20;;;;;;;13.49;100.00;98423.34;4174726;28;20215;-49
2022/12/31 07:44:47;;;;;;;1.23;0.85;;;;;;;13.46;100.00;98429.41;4182948;28;20211;-49
2022/12/31 07:46:54;;;;;;;2.25;1.00;;;;;;;13.47;100.00;98424.72;4141789;28;20248;-48
2022/12/31 07:48:59;;;;;;;0.90;0.90;;;;;;;13.45;100.00;98433.25;4170054;28;20247;-49
2022/12/31 07:51:01;;;;;;;1.23;1.08;;;;;;;13.42;100.00;98425.53;4169079;28;20270;-51
2022/12/31 07:53:03;;;;;;;3.95;0.75;;;;;;;13.45;100.00;98430.50;4174146;28;20208;-51
2022/12/31 07:55:05;;;;;;;1.67;1.33;;;;;;;13.39;100.00;98430.75;4173647;28;20736;-50
2022/12/31 07:57:08;;;;;;;3.97;1.35;;;;;;;13.39;100.00;98437.09;4157738;28;20235;-50
2022/12/31 07:59:19;;;;;;;1.10;0.80;;;;;;;13.42;100.00;98436.53;4167862;28;20697;-48
2022/12/31 08:01:58;;;;;;;2.67;1.10;;;;;;;13.43;100.00;98449.19;4172155;28;20235;-48
2022/12/31 08:04:39;;;;;;;2.08;1.20;;;;;;;13.44;100.00;98450.81;4167165;28;20221;-48
2022/12/31 08:06:41;;;;;;;4.30;0.90;;;;;;;13.40;100.00;98466.22;4139303;28;20651;-48
2022/12/31 08:09:04;;;;;;;1.15;1.05;;;;;;;13.40;100.00;98477.22;4170969;28;20236;-48
2022/12/31 08:11:30;;;;;;;1.42;0.88;;;;;;;13.44;100.00;98459.06;4186939;28;20302;-49
2022/12/31 08:13:32;;;;;;;1.17;1.00;;;;;;;13.45;100.00;98457.16;4184844;28;20310;-50
2022/12/31 08:15:36;;;;;;;0.80;0.80;;;;;;;13.50;100.00;98463.50;4170028;28;20270;-48
2022/12/31 08:17:38;;;;;;;3.22;1.08;;;;;;;13.52;100.00;98466.81;4171925;28;20242;-49
2022/12/31 08:19:40;;;;;;;1.08;1.00;;;;;;;13.49;100.00;98472.03;4171011;28;20322;-49
2022/12/31 08:22:10;;;;;;;1.02;1.00;;;;;;;13.50;100.00;98474.50;4181531;28;20835;-48
2022/12/31 08:24:24;;;;;;;3.60;1.10;;;;;;;13.58;100.00;98473.97;4169201;28;20204;-48
2022/12/31 08:26:45;;;;;;;0.80;0.80;;;;;;;13.62;100.00;98468.75;4184250;28;20230;-47
2022/12/31 08:29:00;;;;;;;1.50;1.17;;;;;;;13.59;100.00;98470.16;4184781;28;20211;-48
2022/12/31 08:31:09;;;;;;;1.73;1.23;;;;;;;13.70;100.00;98471.81;4170612;28;20234;-48
2022/12/31 08:33:14;;;;;;;1.08;0.98;;;;;;;13.70;100.00;98465.50;4171466;28;20273;-48
2022/12/31 08:35:34;;;;;;;1.20;1.08;;;;;;;13.67;100.00;98464.13;4182069;28;20258;-48
2022/12/31 08:37:40;;;;;;;1.45;1.08;;;;;;;13.72;100.00;98464.13;4181473;28;20222;-49
2022/12/31 08:40:07;;;;;;;0.98;0.88;;;;;;;13.68;100.00;98465.75;4166330;28;20255;-47
2022/12/31 08:42:40;;;;;;;3.05;1.30;;;;;;;13.70;100.00;98463.56;4164388;28;20323;-48
2022/12/31 08:45:13;;;;;;;0.80;0.80;;;;;;;13.72;100.00;98464.13;4182589;28;20326;-49
2022/12/31 08:47:24;;;;;;;0.82;0.82;;;;;;;13.70;100.00;98466.31;4172345;28;20215;-48
2022/12/31 08:49:27;;;;;;;1.45;1.30;;;;;;;13.72;100.00;98452.28;4184213;28;20222;-48
2022/12/31 08:51:29;;;;;;;1.10;1.00;;;;;;;13.77;100.00;98463.31;4165852;28;20232;-48
2022/12/31 08:53:31;;;;;;;2.92;1.10;;;;;;;13.78;100.00;98465.75;4168353;28;20292;-48
2022/12/31 08:55:33;;;;;;;1.33;1.23;;;;;;;13.80;100.00;98465.50;4171267;28;20219;-48
2022/12/31 08:57:44;;;;;;;1.27;0.80;;;;;;;13.76;100.00;98464.41;4173350;28;20208;-49
2022/12/31 09:00:09;;;;;;;1.10;0.95;;;;;;;13.79;100.00;98481.19;4170310;28;20271;-50
2022/12/31 09:02:26;;;;;;;2.88;0.80;;;;;;;13.73;100.00;98474.03;4168502;28;20266;-48
2022/12/31 09:04:46;;;;;;;2.58;1.08;;;;;;;13.74;100.00;98483.94;4183654;28;20199;-49
2022/12/31 09:06:56;;;;;;;1.08;0.85;;;;;;;13.82;100.00;98485.31;4166073;28;20236;-48
2022/12/31 09:09:20;;;;;;;1.50;1.40;;;;;;;13.83;100.00;98482.28;4166842;28;20314;-49
2022/12/31 09:11:30;;;;;;;1.15;1.05;;;;;;;13.94;100.00;98481.22;4168266;28;20244;-49
2022/12/31 09:13:53;;;;;;;1.67;1.20;;;;;;;13.97;100.00;98494.41;4185513;28;20261;-48
2022/12/31 09:16:02;;;;;;;0.80;0.80;;;;;;;14.03;100.00;98496.09;4182172;28;20243;-48
2022/12/31 09:18:04;;;;;;;1.67;1.00;;;;;;;14.04;100.00;98489.47;4168531;28;20219;-48
2022/12/31 09:20:18;;;;;;;1.27;1.00;;;;;;;14.01;100.00;98489.19;4166222;28;20224;-48
2022/12/31 09:22:20;;;;;;;1.05;1.00;;;;;;;14.03;100.00;98492.53;4178818;28;20758;-49
2022/12/31 09:24:22;;;;;;;1.23;0.98;;;;;;;14.04;100.00;98486.72;4169314;28;20243;-48
2022/12/31 09:27:14;;;;;;;1.27;1.13;;;;;;;14.03;100.00;98493.34;4168599;28;20670;-49
2022/12/31 09:29:19;;;;;;;1.42;1.25;;;;;;;14.02;100.00;98479.84;4107779;28;20759;-49
2022/12/31 09:31:30;;;;;;;1.20;1.00;;;;;;;14.01;100.00;98494.69;4086609;28;20231;-49
2022/12/31 09:33:51;;;;;;;1.00;0.90;;;;;;;14.07;100.00;98505.47;4100874;28;20214;-49
2022/12/31 09:35:56;;;;;;;1.00;0.90;;;;;;;14.13;100.00;98495.28;4168997;28;20677;-48
2022/12/31 09:38:02;;;;;;;2.17;1.10;;;;;;;14.13;100.00;98492.53;4167997;28;20615;-48
2022/12/31 09:40:49;;;;;;;1.23;1.13;;;;;;;14.21;100.00;98503.84;4167652;28;20239;-49
2022/12/31 09:43:00;;;;;;;1.05;0.98;;;;;;;14.23;100.00;98509.09;4179735;28;20320;-48
2022/12/31 09:45:42;;;;;;;1.67;1.00;;;;;;;14.30;100.00;98498.66;4162638;28;20300;-48
2022/12/31 09:47:59;;;;;;;1.45;1.30;;;;;;;14.36;100.00;98487.34;4120215;28;20217;-49
2022/12/31 09:50:05;;;;;;;1.42;1.15;;;;;;;14.35;100.00;98493.97;4153345;28;20327;-51
2022/12/31 09:52:13;;;;;;;1.30;1.10;;;;;;;14.44;100.00;98499.75;4166551;28;20728;-54
2022/12/31 09:54:29;;;;;;;1.33;1.00;;;;;;;14.48;100.00;98501.66;4166984;28;20210;-46
2022/12/31 09:56:38;;;;;;;2.05;1.65;;;;;;;14.49;100.00;98503.31;4183633;28;20212;-47
2022/12/31 09:58:44;;;;;;;1.52;0.95;;;;;;;14.48;100.00;98501.66;4167199;28;20291;-47
2022/12/31 10:00:51;;;;;;;2.63;0.80;;;;;;;14.49;100.00;98497.81;4171391;28;20247;-47